createdAt,value
2023-04-02T00:00:52.819Z,83.7519
2023-04-02T00:01:54.241Z,83.9515
2023-04-02T00:02:55.730Z,83.7841
2023-04-02T00:03:57.173Z,83.5094
2023-04-02T00:04:58.598Z,83.1562
2023-04-02T00:05:59.964Z,83.2027
2023-04-02T00:07:01.327Z,83.4279
2023-04-02T00:08:02.740Z,82.8423
2023-04-02T00:09:04.116Z,82.3514
2023-04-02T00:10:05.549Z,82.0694
2023-04-02T00:11:06.958Z,82.3342
2023-04-02T00:12:08.339Z,83.1781
2023-04-02T00:13:09.735Z,83.0486
2023-04-02T00:14:11.186Z,83.0094
2023-04-02T00:15:12.635Z,83.0508
2023-04-02T00:16:14.018Z,82.8758
2023-04-02T00:17:15.437Z,82.8396
2023-04-02T00:18:16.902Z,83.3709
2023-04-02T00:19:18.279Z,83.2707
2023-04-02T00:20:19.628Z,83.1308
2023-04-02T00:21:20.970Z,82.7439
2023-04-02T00:22:22.377Z,82.5558
2023-04-02T00:23:23.770Z,82.5024
2023-04-02T00:24:25.199Z,82.9848
2023-04-02T00:25:26.576Z,83.1405
2023-04-02T00:26:28.037Z,83.0790
2023-04-02T00:27:29.363Z,83.4739
2023-04-02T00:28:30.749Z,83.6740
2023-04-02T00:29:32.133Z,84.0599
2023-04-02T00:30:33.508Z,84.2698
2023-04-02T00:31:34.900Z,84.8764
2023-04-02T00:32:36.307Z,85.0549
2023-04-02T00:33:37.742Z,85.5995
2023-04-02T00:34:39.204Z,86.0394
2023-04-02T00:35:40.660Z,86.2974
2023-04-02T00:36:42.171Z,86.1415
2023-04-02T00:37:43.571Z,86.4391
2023-04-02T00:38:46.665Z,86.6235
2023-04-02T00:39:46.425Z,86.3335
2023-04-02T00:40:47.774Z,86.5044
2023-04-02T00:41:49.197Z,86.4751
2023-04-02T00:42:50.607Z,86.3964
2023-04-02T00:43:52.051Z,86.7743
2023-04-02T00:44:53.504Z,86.7024
2023-04-02T00:45:54.923Z,86.8514
2023-04-02T00:46:56.354Z,87.0851
2023-04-02T00:47:57.854Z,87.0733
2023-04-02T00:48:59.241Z,87.0694
2023-04-02T00:50:00.717Z,87.2223
2023-04-02T00:51:02.093Z,87.2738
2023-04-02T00:52:03.531Z,86.9258
2023-04-02T00:53:04.920Z,86.9491
2023-04-02T00:54:06.378Z,87.3031
2023-04-02T00:55:07.793Z,87.4202
2023-04-02T00:56:09.280Z,87.5438
2023-04-02T00:57:10.653Z,87.4320
2023-04-02T00:58:12.131Z,87.2890
2023-04-02T00:59:13.495Z,87.3836
2023-04-02T01:00:14.979Z,87.2037
2023-04-02T01:01:16.395Z,87.1222
2023-04-02T01:02:18.070Z,87.2132
2023-04-02T01:03:19.666Z,87.4697
2023-04-02T01:04:21.515Z,87.3577
2023-04-02T01:05:23.068Z,87.4394
2023-04-02T01:06:24.471Z,87.4374
2023-04-02T01:07:26.112Z,87.2720
2023-04-02T01:08:27.534Z,86.7494
2023-04-02T01:09:28.882Z,86.9330
2023-04-02T01:10:30.343Z,86.8943
2023-04-02T01:11:31.879Z,86.7952
2023-04-02T01:12:33.381Z,87.0177
2023-04-02T01:13:34.782Z,86.9069
2023-04-02T01:14:36.204Z,86.9704
2023-04-02T01:15:38.110Z,87.1094
2023-04-02T01:16:39.782Z,86.8075
2023-04-02T01:17:41.182Z,86.9097
2023-04-02T01:18:42.583Z,87.0128
2023-04-02T01:19:43.938Z,87.3275
2023-04-02T01:20:45.384Z,87.3263
2023-04-02T01:21:46.796Z,86.9312
2023-04-02T01:22:48.256Z,86.7475
2023-04-02T01:23:49.605Z,86.6285
2023-04-02T01:24:50.993Z,86.7815
2023-04-02T01:25:52.449Z,86.8851
2023-04-02T01:26:53.777Z,86.6639
2023-04-02T01:27:55.182Z,86.6277
2023-04-02T01:28:56.575Z,86.4935
2023-04-02T01:29:57.955Z,86.4576
2023-04-02T01:30:59.346Z,86.5257
2023-04-02T01:32:00.791Z,86.4035
2023-04-02T01:33:02.255Z,86.5673
2023-04-02T01:34:03.674Z,86.5503
2023-04-02T01:35:05.039Z,86.6209
2023-04-02T01:36:06.419Z,86.7551
2023-04-02T01:37:07.813Z,86.5441
2023-04-02T01:38:09.205Z,86.5582
2023-04-02T01:39:10.628Z,86.6797
2023-04-02T01:40:12.023Z,87.0735
2023-04-02T01:41:13.407Z,87.0843
2023-04-02T01:42:14.824Z,86.9989
2023-04-02T01:43:16.195Z,86.7474
2023-04-02T01:44:17.553Z,86.5066
2023-04-02T01:45:18.955Z,86.6800
2023-04-02T01:46:20.435Z,86.7047
2023-04-02T01:47:21.768Z,86.3995
2023-04-02T01:48:23.208Z,86.1678
2023-04-02T01:49:24.573Z,85.9602
2023-04-02T01:50:25.977Z,85.9727
2023-04-02T01:51:27.394Z,85.3888
2023-04-02T01:52:28.882Z,85.3679
2023-04-02T01:53:30.222Z,85.7362
2023-04-02T01:54:31.665Z,85.5805
2023-04-02T01:55:33.328Z,85.4810
2023-04-02T01:56:35.179Z,85.6276
2023-04-02T01:57:36.572Z,85.1549
2023-04-02T01:58:37.950Z,84.8291
2023-04-02T01:59:39.369Z,84.7553
2023-04-02T02:00:40.902Z,84.7454
2023-04-02T02:01:42.467Z,85.0667
2023-04-02T02:02:43.918Z,85.6557
2023-04-02T02:03:45.400Z,85.5960
2023-04-02T02:04:46.853Z,85.2392
2023-04-02T02:05:48.218Z,85.2440
2023-04-02T02:06:49.632Z,85.6059
2023-04-02T02:07:51.039Z,85.7659
2023-04-02T02:08:52.440Z,85.6518
2023-04-02T02:09:53.787Z,85.8866
2023-04-02T02:10:55.194Z,85.2395
2023-04-02T02:11:56.564Z,85.6973
2023-04-02T02:12:57.998Z,85.5257
2023-04-02T02:13:59.356Z,85.9153
2023-04-02T02:15:00.814Z,86.1542
2023-04-02T02:16:02.189Z,86.2433
2023-04-02T02:17:03.575Z,86.1681
2023-04-02T02:18:04.927Z,85.7630
2023-04-02T02:19:06.322Z,85.3823
2023-04-02T02:20:07.741Z,85.5039
2023-04-02T02:21:09.114Z,85.5681
2023-04-02T02:22:10.547Z,85.7998
2023-04-02T02:23:11.936Z,85.6647
2023-04-02T02:24:13.414Z,85.7976
2023-04-02T02:25:14.827Z,86.1389
2023-04-02T02:26:16.238Z,86.0709
2023-04-02T02:27:17.587Z,85.1279
2023-04-02T02:28:19.002Z,84.6290
2023-04-02T02:29:20.384Z,84.8881
2023-04-02T02:30:21.770Z,85.7442
2023-04-02T02:31:23.270Z,85.7023
2023-04-02T02:32:24.701Z,84.4529
2023-04-02T02:33:26.079Z,84.1298
2023-04-02T02:34:27.469Z,84.0421
2023-04-02T02:35:28.983Z,84.2425
2023-04-02T02:36:30.364Z,84.8190
2023-04-02T02:37:31.741Z,84.8726
2023-04-02T02:38:33.147Z,84.6301
2023-04-02T02:39:34.635Z,83.6643
2023-04-02T02:40:36.049Z,83.2563
2023-04-02T02:41:37.441Z,83.4895
2023-04-02T02:42:38.832Z,83.8155
2023-04-02T02:43:40.272Z,83.8647
2023-04-02T02:44:41.670Z,83.5513
2023-04-02T02:45:43.071Z,83.9350
2023-04-02T02:46:44.437Z,83.9587
2023-04-02T02:47:45.885Z,84.1545
2023-04-02T02:48:47.217Z,84.4232
2023-04-02T02:49:48.632Z,84.2197
2023-04-02T02:50:50.060Z,84.2326
2023-04-02T02:51:51.441Z,84.4570
2023-04-02T02:52:52.849Z,84.2495
2023-04-02T02:53:54.249Z,84.3146
2023-04-02T02:54:55.917Z,84.3206
2023-04-02T02:55:57.331Z,84.1082
2023-04-02T02:56:58.716Z,84.0762
2023-04-02T02:58:00.142Z,84.3534
2023-04-02T02:59:01.516Z,84.2508
2023-04-02T03:00:02.962Z,84.2602
2023-04-02T03:01:04.402Z,84.2340
2023-04-02T03:02:05.762Z,84.3574
2023-04-02T03:03:07.238Z,83.7717
2023-04-02T03:04:09.000Z,83.5369
2023-04-02T03:05:10.674Z,83.5456
2023-04-02T03:06:12.100Z,83.1501
2023-04-02T03:07:13.485Z,83.2726
2023-04-02T03:08:14.975Z,83.5245
2023-04-02T03:09:16.398Z,83.7558
2023-04-02T03:10:17.816Z,83.3929
2023-04-02T03:11:19.277Z,83.3598
2023-04-02T03:12:20.685Z,83.5510
2023-04-02T03:13:22.066Z,83.7553
2023-04-02T03:14:23.446Z,83.3719
2023-04-02T03:15:24.798Z,83.8365
2023-04-02T03:16:26.297Z,83.6858
2023-04-02T03:17:27.732Z,84.1743
2023-04-02T03:18:29.155Z,84.2129
2023-04-02T03:19:30.566Z,84.2629
2023-04-02T03:20:31.951Z,84.0123
2023-04-02T03:21:33.399Z,83.4765
2023-04-02T03:22:34.776Z,83.3246
2023-04-02T03:23:36.164Z,83.5502
2023-04-02T03:24:37.524Z,83.7189
2023-04-02T03:25:38.979Z,83.8177
2023-04-02T03:26:40.308Z,83.7754
2023-04-02T03:27:41.755Z,83.9495
2023-04-02T03:28:43.135Z,83.8845
2023-04-02T03:29:44.575Z,84.1309
2023-04-02T03:30:46.028Z,83.4721
2023-04-02T03:31:47.585Z,83.6141
2023-04-02T03:32:49.112Z,83.9916
2023-04-02T03:33:50.596Z,83.6022
2023-04-02T03:34:52.059Z,83.5226
2023-04-02T03:35:53.611Z,83.4264
2023-04-02T03:36:55.065Z,83.3843
2023-04-02T03:37:56.547Z,83.5032
2023-04-02T03:38:58.105Z,83.5762
2023-04-02T03:39:59.594Z,83.4960
2023-04-02T03:41:01.173Z,83.5309
2023-04-02T03:42:02.553Z,83.7486
2023-04-02T03:43:04.015Z,83.6943
2023-04-02T03:44:05.514Z,83.5267
2023-04-02T03:45:07.156Z,83.7810
2023-04-02T03:46:08.926Z,83.2869
2023-04-02T03:47:10.381Z,83.4373
2023-04-02T03:48:11.841Z,83.8383
2023-04-02T03:49:13.324Z,83.7977
2023-04-02T03:50:14.796Z,84.1394
2023-04-02T03:51:16.307Z,84.0936
2023-04-02T03:52:17.779Z,84.0419
2023-04-02T03:53:19.242Z,84.0393
2023-04-02T03:54:20.720Z,84.3960
2023-04-02T03:55:22.253Z,84.5031
2023-04-02T03:56:23.636Z,84.5570
2023-04-02T03:57:25.174Z,84.5529
2023-04-02T03:58:26.721Z,84.5468
2023-04-02T03:59:28.283Z,84.4485
2023-04-02T04:00:29.703Z,84.7397
2023-04-02T04:01:31.209Z,84.6201
2023-04-02T04:02:32.652Z,84.6569
2023-04-02T04:03:34.181Z,84.7349
2023-04-02T04:04:35.730Z,84.5803
2023-04-02T04:05:37.456Z,84.3314
2023-04-02T04:06:39.097Z,84.3092
2023-04-02T04:07:40.520Z,84.3082
2023-04-02T04:08:41.949Z,82.2132
2023-04-02T04:09:43.413Z,80.4304
2023-04-02T04:10:44.890Z,80.4638
2023-04-02T04:11:46.346Z,81.1242
2023-04-02T04:12:47.915Z,81.1563
2023-04-02T04:13:49.384Z,80.9445
2023-04-02T04:14:50.851Z,80.6710
2023-04-02T04:15:52.275Z,80.7709
2023-04-02T04:16:54.003Z,80.8375
2023-04-02T04:17:55.950Z,81.0482
2023-04-02T04:18:57.396Z,81.1033
2023-04-02T04:19:58.856Z,80.8123
2023-04-02T04:21:00.396Z,80.5847
2023-04-02T04:22:01.850Z,80.7754
2023-04-02T04:23:03.268Z,80.5322
2023-04-02T04:24:04.863Z,80.8381
2023-04-02T04:25:06.285Z,81.0648
2023-04-02T04:26:07.731Z,81.2069
2023-04-02T04:27:09.182Z,81.0312
2023-04-02T04:28:10.653Z,80.7592
2023-04-02T04:29:12.070Z,80.9055
2023-04-02T04:30:13.641Z,80.9056
2023-04-02T04:31:15.103Z,81.1568
2023-04-02T04:32:16.609Z,81.3997
2023-04-02T04:33:18.246Z,81.7783
2023-04-02T04:34:19.697Z,82.0533
2023-04-02T04:35:21.144Z,81.6922
2023-04-02T04:36:22.586Z,81.4733
2023-04-02T04:37:24.077Z,81.3866
2023-04-02T04:38:25.562Z,81.7000
2023-04-02T04:39:27.154Z,81.3394
2023-04-02T04:40:28.602Z,81.2473
2023-04-02T04:41:30.049Z,81.2956
2023-04-02T04:42:31.491Z,81.6666
2023-04-02T04:43:32.982Z,81.5548
2023-04-02T04:44:34.445Z,81.3741
2023-04-02T04:45:36.221Z,81.1018
2023-04-02T04:46:37.882Z,81.1071
2023-04-02T04:47:39.373Z,80.9685
2023-04-02T04:48:40.813Z,80.5217
2023-04-02T04:49:42.266Z,80.6906
2023-04-02T04:50:43.705Z,81.1122
2023-04-02T04:51:45.179Z,80.9346
2023-04-02T04:52:46.632Z,80.3308
2023-04-02T04:53:48.185Z,80.7097
2023-04-02T04:54:49.663Z,80.6450
2023-04-02T04:55:51.104Z,80.9408
2023-04-02T04:56:52.606Z,81.0825
2023-04-02T04:57:54.040Z,81.0744
2023-04-02T04:58:55.454Z,80.7052
2023-04-02T04:59:56.878Z,80.2701
2023-04-02T05:00:58.321Z,80.5999
2023-04-02T05:01:59.793Z,80.6115
2023-04-02T05:03:01.373Z,80.6099
2023-04-02T05:04:02.791Z,80.9715
2023-04-02T05:05:04.317Z,81.1831
2023-04-02T05:06:05.764Z,81.3911
2023-04-02T05:07:07.235Z,80.9336
2023-04-02T05:08:08.664Z,81.1737
2023-04-02T05:09:10.080Z,81.3756
2023-04-02T05:10:11.563Z,80.5635
2023-04-02T05:11:13.045Z,80.3825
2023-04-02T05:12:14.493Z,80.7646
2023-04-02T05:13:15.913Z,80.8416
2023-04-02T05:14:17.416Z,80.8939
2023-04-02T05:15:18.867Z,80.8911
2023-04-02T05:16:20.383Z,80.9675
2023-04-02T05:17:21.870Z,81.0950
2023-04-02T05:18:23.372Z,80.6050
2023-04-02T05:19:24.824Z,80.7681
2023-04-02T05:20:26.263Z,80.8026
2023-04-02T05:21:27.669Z,80.6003
2023-04-02T05:22:29.109Z,81.0117
2023-04-02T05:23:30.614Z,80.8516
2023-04-02T05:24:31.998Z,80.8583
2023-04-02T05:25:33.669Z,80.7216
2023-04-02T05:26:35.183Z,80.8826
2023-04-02T05:27:36.681Z,81.0305
2023-04-02T05:28:38.132Z,81.2774
2023-04-02T05:29:39.647Z,80.7360
2023-04-02T05:30:41.251Z,80.0569
2023-04-02T05:31:42.795Z,79.6864
2023-04-02T05:32:44.367Z,79.8328
2023-04-02T05:33:45.866Z,79.9243
2023-04-02T05:34:47.343Z,80.3159
2023-04-02T05:35:48.867Z,80.5204
2023-04-02T05:36:50.356Z,80.4352
2023-04-02T05:37:51.809Z,79.9158
2023-04-02T05:38:53.277Z,80.0914
2023-04-02T05:39:54.792Z,80.1282
2023-04-02T05:40:56.275Z,80.1315
2023-04-02T05:41:57.761Z,80.1999
2023-04-02T05:42:59.197Z,80.1102
2023-04-02T05:44:00.665Z,79.8099
2023-04-02T05:45:02.134Z,79.9855
2023-04-02T05:46:03.804Z,80.1530
2023-04-02T05:47:05.244Z,80.2195
2023-04-02T05:48:06.748Z,80.1767
2023-04-02T05:49:08.183Z,79.8561
2023-04-02T05:50:09.663Z,80.0619
2023-04-02T05:51:11.094Z,80.0778
2023-04-02T05:52:12.556Z,80.3059
2023-04-02T05:53:14.095Z,80.2521
2023-04-02T05:54:15.563Z,80.0758
2023-04-02T05:55:17.386Z,80.0297
2023-04-02T05:56:18.813Z,80.0431
2023-04-02T05:57:20.270Z,79.9803
2023-04-02T05:58:35.573Z,79.9631
2023-04-02T05:59:21.738Z,79.9124
2023-04-02T06:00:23.180Z,79.9246
2023-04-02T06:01:24.620Z,79.8269
2023-04-02T06:02:26.086Z,79.5795
2023-04-02T06:03:27.745Z,79.4675
2023-04-02T06:04:29.223Z,79.4163
2023-04-02T06:05:30.641Z,79.7360
2023-04-02T06:06:32.075Z,79.8506
2023-04-02T06:07:33.516Z,79.6089
2023-04-02T06:08:35.057Z,79.8536
2023-04-02T06:09:36.519Z,79.6678
2023-04-02T06:10:37.972Z,79.7851
2023-04-02T06:11:39.417Z,79.7728
2023-04-02T06:12:40.922Z,79.8059
2023-04-02T06:13:42.406Z,79.7842
2023-04-02T06:14:43.935Z,79.7400
2023-04-02T06:15:47.247Z,79.1164
2023-04-02T06:16:46.801Z,79.3334
2023-04-02T06:17:48.301Z,79.4018
2023-04-02T06:18:49.789Z,79.4804
2023-04-02T06:19:51.251Z,79.6136
2023-04-02T06:20:52.720Z,79.4840
2023-04-02T06:21:54.124Z,79.2881
2023-04-02T06:22:55.623Z,79.3403
2023-04-02T06:23:57.102Z,79.0934
2023-04-02T06:24:58.543Z,79.1977
2023-04-02T06:26:00.013Z,78.6673
2023-04-02T06:27:01.491Z,78.4686
2023-04-02T06:28:02.982Z,78.2039
2023-04-02T06:29:04.465Z,78.5633
2023-04-02T06:30:05.917Z,78.4768
2023-04-02T06:31:07.552Z,78.0476
2023-04-02T06:32:08.992Z,78.2044
2023-04-02T06:33:10.521Z,78.2514
2023-04-02T06:34:12.000Z,78.4201
2023-04-02T06:35:13.442Z,78.2756
2023-04-02T06:36:14.878Z,78.6259
2023-04-02T06:37:16.252Z,78.5022
2023-04-02T06:38:17.745Z,78.4704
2023-04-02T06:39:19.184Z,78.6752
2023-04-02T06:40:20.640Z,78.3534
2023-04-02T06:41:22.861Z,77.7521
2023-04-02T06:42:24.331Z,78.0489
2023-04-02T06:43:25.780Z,78.0560
2023-04-02T06:44:27.254Z,78.4065
2023-04-02T06:45:28.681Z,78.1106
2023-04-02T06:46:30.172Z,77.7003
2023-04-02T06:47:31.704Z,77.4766
2023-04-02T06:48:33.280Z,77.6525
2023-04-02T06:49:34.701Z,77.5741
2023-04-02T06:50:36.168Z,77.5574
2023-04-02T06:51:37.609Z,77.3979
2023-04-02T06:52:39.072Z,77.5194
2023-04-02T06:53:40.517Z,77.5792
2023-04-02T06:54:41.948Z,77.7107
2023-04-02T06:55:43.422Z,77.7451
2023-04-02T06:56:44.779Z,77.7319
2023-04-02T06:57:46.244Z,77.8274
2023-04-02T06:58:47.709Z,77.4946
2023-04-02T06:59:49.132Z,77.0993
2023-04-02T07:00:50.513Z,77.1004
2023-04-02T07:01:51.998Z,76.8947
2023-04-02T07:02:55.152Z,76.9077
2023-04-02T07:03:58.447Z,77.1579
2023-04-02T07:05:00.864Z,76.0766
2023-04-02T07:06:02.273Z,76.0451
2023-04-02T07:07:03.734Z,75.9368
2023-04-02T07:08:05.208Z,76.1718
2023-04-02T07:09:07.641Z,75.6963
2023-04-02T07:10:09.172Z,75.5709
2023-04-02T07:11:10.649Z,75.7407
2023-04-02T07:12:12.062Z,75.9359
2023-04-02T07:13:13.533Z,76.4180
2023-04-02T07:14:15.002Z,75.8036
2023-04-02T07:15:16.586Z,75.6078
2023-04-02T07:16:18.093Z,75.9082
2023-04-02T07:17:19.640Z,75.5091
2023-04-02T07:18:21.198Z,75.5801
2023-04-02T07:19:22.769Z,75.8184
2023-04-02T07:20:24.238Z,75.7800
2023-04-02T07:21:25.683Z,76.4238
2023-04-02T07:22:27.091Z,75.9709
2023-04-02T07:23:28.560Z,75.9078
2023-04-02T07:24:30.030Z,75.7117
2023-04-02T07:25:31.487Z,75.4446
2023-04-02T07:26:32.932Z,74.8845
2023-04-02T07:27:34.379Z,74.9604
2023-04-02T07:28:35.859Z,74.4991
2023-04-02T07:29:37.271Z,74.5337
2023-04-02T07:30:38.688Z,74.8240
2023-04-02T07:31:40.230Z,74.5743
2023-04-02T07:32:41.674Z,74.3120
2023-04-02T07:33:43.081Z,74.5727
2023-04-02T07:34:44.485Z,74.6225
2023-04-02T07:35:46.028Z,74.3686
2023-04-02T07:36:47.441Z,73.5307
2023-04-02T07:37:48.894Z,73.5725
2023-04-02T07:38:50.303Z,73.3714
2023-04-02T07:39:51.809Z,73.1046
2023-04-02T07:40:53.238Z,73.9462
2023-04-02T07:41:54.568Z,72.6455
2023-04-02T07:42:56.038Z,73.2255
2023-04-02T07:43:57.524Z,73.2376
2023-04-02T07:44:58.926Z,72.8855
2023-04-02T07:46:00.339Z,73.1760
2023-04-02T07:47:01.834Z,73.4430
2023-04-02T07:48:03.495Z,73.6001
2023-04-02T07:49:05.010Z,73.0275
2023-04-02T07:50:06.491Z,71.3775
2023-04-02T07:51:07.919Z,71.7687
2023-04-02T07:52:09.373Z,69.8435
2023-04-02T07:53:10.786Z,70.2408
2023-04-02T07:54:12.254Z,70.5426
2023-04-02T07:55:13.672Z,71.1521
2023-04-02T07:56:15.104Z,69.0813
2023-04-02T07:57:16.556Z,68.9806
2023-04-02T07:58:17.975Z,69.0082
2023-04-02T07:59:19.442Z,69.0079
2023-04-02T08:00:20.860Z,68.5148
2023-04-02T08:01:22.279Z,69.7884
2023-04-02T08:02:23.703Z,71.2323
2023-04-02T08:03:25.318Z,71.7490
2023-04-02T08:04:26.845Z,72.0296
2023-04-02T08:05:28.331Z,72.1552
2023-04-02T08:06:29.776Z,72.3656
2023-04-02T08:07:31.229Z,71.8439
2023-04-02T08:08:32.685Z,71.7587
2023-04-02T08:09:34.123Z,71.3155
2023-04-02T08:10:35.639Z,72.5663
2023-04-02T08:11:37.154Z,72.1329
2023-04-02T08:12:38.678Z,71.9117
2023-04-02T08:13:40.131Z,72.1131
2023-04-02T08:14:41.639Z,70.5467
2023-04-02T08:15:43.028Z,71.5639
2023-04-02T08:16:44.586Z,73.3216
2023-04-02T08:17:46.029Z,73.3938
2023-04-02T08:18:47.473Z,72.6280
2023-04-02T08:19:55.130Z,71.7987
2023-04-02T08:20:49.011Z,71.7080
2023-04-02T08:21:50.466Z,72.2034
2023-04-02T08:22:51.945Z,71.8677
2023-04-02T08:23:53.371Z,72.7230
2023-04-02T08:24:54.912Z,73.8366
2023-04-02T08:25:56.366Z,73.6256
2023-04-02T08:26:57.847Z,73.2274
2023-04-02T08:27:59.292Z,73.3418
2023-04-02T08:29:00.853Z,72.7420
2023-04-02T08:30:02.316Z,73.1050
2023-04-02T08:31:03.853Z,72.6390
2023-04-02T08:32:05.276Z,72.9019
2023-04-02T08:33:06.768Z,72.4310
2023-04-02T08:34:08.195Z,72.4313
2023-04-02T08:35:09.731Z,72.6234
2023-04-02T08:36:11.304Z,72.1402
2023-04-02T08:37:12.733Z,71.8273
2023-04-02T08:38:14.140Z,71.9661
2023-04-02T08:39:15.586Z,72.6029
2023-04-02T08:40:17.023Z,71.9598
2023-04-02T08:41:18.571Z,71.8776
2023-04-02T08:42:19.984Z,71.8203
2023-04-02T08:43:23.109Z,72.4254
2023-04-02T08:44:22.973Z,72.5984
2023-04-02T08:45:25.595Z,72.2981
2023-04-02T08:46:24.918Z,72.2521
2023-04-02T08:47:26.420Z,71.9706
2023-04-02T08:48:27.841Z,71.3419
2023-04-02T08:49:29.322Z,71.8269
2023-04-02T08:50:30.861Z,71.8013
2023-04-02T08:51:32.302Z,71.9775
2023-04-02T08:52:33.740Z,71.4581
2023-04-02T08:53:35.206Z,71.9627
2023-04-02T08:54:36.676Z,71.4408
2023-04-02T08:55:38.240Z,71.7592
2023-04-02T08:56:39.737Z,71.5133
2023-04-02T08:57:41.182Z,70.9557
2023-04-02T08:58:42.610Z,70.8959
2023-04-02T08:59:44.107Z,71.1664
2023-04-02T09:00:45.562Z,70.9427
2023-04-02T09:01:47.031Z,69.8890
2023-04-02T09:02:48.480Z,69.7653
2023-04-02T09:03:49.916Z,69.9916
2023-04-02T09:04:51.439Z,70.3531
2023-04-02T09:05:52.933Z,70.3428
2023-04-02T09:06:54.369Z,70.7658
2023-04-02T09:07:55.811Z,71.0346
2023-04-02T09:08:57.267Z,71.5204
2023-04-02T09:09:58.836Z,71.7571
2023-04-02T09:11:00.306Z,71.5336
2023-04-02T09:12:01.803Z,71.2311
2023-04-02T09:13:03.198Z,71.0899
2023-04-02T09:14:04.747Z,70.5492
2023-04-02T09:15:06.214Z,69.9904
2023-04-02T09:16:07.792Z,70.2308
2023-04-02T09:17:09.251Z,70.3417
2023-04-02T09:18:10.741Z,70.0271
2023-04-02T09:19:12.166Z,69.9207
2023-04-02T09:20:13.661Z,69.2050
2023-04-02T09:21:15.112Z,68.8366
2023-04-02T09:22:16.593Z,69.0092
2023-04-02T09:23:18.044Z,68.7027
2023-04-02T09:24:19.523Z,68.3062
2023-04-02T09:25:21.021Z,68.4144
2023-04-02T09:26:22.460Z,68.0506
2023-04-02T09:27:23.893Z,68.9567
2023-04-02T09:28:25.341Z,68.9218
2023-04-02T09:29:26.769Z,68.5068
2023-04-02T09:30:28.257Z,68.2810
2023-04-02T09:31:29.705Z,69.1895
2023-04-02T09:32:31.165Z,68.1071
2023-04-02T09:33:32.536Z,68.0073
2023-04-02T09:34:34.159Z,68.8074
2023-04-02T09:35:35.597Z,68.7832
2023-04-02T09:36:37.051Z,68.6162
2023-04-02T09:37:38.464Z,68.4796
2023-04-02T09:38:39.955Z,68.3972
2023-04-02T09:39:41.430Z,67.9212
2023-04-02T09:40:43.097Z,68.9488
2023-04-02T09:41:48.186Z,69.3925
2023-04-02T09:42:44.590Z,69.4420
2023-04-02T09:43:46.046Z,69.6770
2023-04-02T09:44:47.516Z,68.5448
2023-04-02T09:45:49.282Z,67.7910
2023-04-02T09:46:50.764Z,68.1271
2023-04-02T09:47:52.240Z,67.6569
2023-04-02T09:48:53.703Z,67.6769
2023-04-02T09:49:55.149Z,67.8129
2023-04-02T09:50:56.639Z,67.3495
2023-04-02T09:51:58.732Z,67.5048
2023-04-02T09:53:00.212Z,67.6475
2023-04-02T09:54:01.681Z,66.8136
2023-04-02T09:55:03.137Z,67.0318
2023-04-02T09:56:04.617Z,67.2012
2023-04-02T09:57:06.120Z,66.9538
2023-04-02T09:58:07.575Z,67.2352
2023-04-02T09:59:09.025Z,67.0782
2023-04-02T10:00:18.371Z,67.2665
2023-04-02T10:01:10.586Z,67.1399
2023-04-02T10:02:12.024Z,67.0401
2023-04-02T10:03:13.478Z,66.2930
2023-04-02T10:04:14.951Z,65.6155
2023-04-02T10:05:23.549Z,65.5371
2023-04-02T10:06:15.550Z,65.2317
2023-04-02T10:07:16.970Z,64.7733
2023-04-02T10:08:18.446Z,64.8822
2023-04-02T10:09:19.915Z,65.0170
2023-04-02T10:10:21.406Z,64.1062
2023-04-02T10:11:22.973Z,64.6369
2023-04-02T10:12:24.930Z,64.7674
2023-04-02T10:13:26.364Z,64.7680
2023-04-02T10:14:27.829Z,64.2245
2023-04-02T10:15:29.222Z,64.1002
2023-04-02T10:16:30.708Z,64.5486
2023-04-02T10:17:32.178Z,63.8040
2023-04-02T10:18:33.722Z,63.9501
2023-04-02T10:19:35.179Z,63.8466
2023-04-02T10:20:48.597Z,64.4797
2023-04-02T10:21:36.653Z,64.4298
2023-04-02T10:22:38.117Z,64.0915
2023-04-02T10:23:39.591Z,64.3406
2023-04-02T10:24:41.052Z,64.4567
2023-04-02T10:25:42.508Z,63.3960
2023-04-02T10:26:43.990Z,63.9169
2023-04-02T10:27:45.402Z,63.9207
2023-04-02T10:28:46.895Z,64.1702
2023-04-02T10:29:48.331Z,63.7228
2023-04-02T10:30:49.814Z,63.3232
2023-04-02T10:31:51.231Z,63.5949
2023-04-02T10:32:52.728Z,63.8546
2023-04-02T10:33:54.189Z,64.0233
2023-04-02T10:34:55.622Z,62.6628
2023-04-02T10:35:57.123Z,63.4275
2023-04-02T10:36:58.541Z,64.0057
2023-04-02T10:37:59.994Z,63.8867
2023-04-02T10:39:01.414Z,63.7084
2023-04-02T10:40:02.845Z,63.4882
2023-04-02T10:41:04.324Z,64.2080
2023-04-02T10:42:05.723Z,64.7335
2023-04-02T10:43:07.181Z,64.5973
2023-04-02T10:44:18.998Z,64.7310
2023-04-02T10:45:08.707Z,65.1757
2023-04-02T10:46:10.205Z,64.0406
2023-04-02T10:47:11.737Z,62.6983
2023-04-02T10:48:13.192Z,63.4623
2023-04-02T10:49:14.672Z,62.9314
2023-04-02T10:50:16.100Z,62.3069
2023-04-02T10:51:17.596Z,61.6137
2023-04-02T10:52:19.038Z,62.0414
2023-04-02T10:53:20.485Z,62.3768
2023-04-02T10:54:21.899Z,61.5415
2023-04-02T10:55:23.366Z,61.7447
2023-04-02T10:56:24.832Z,60.4144
2023-04-02T10:57:26.304Z,59.8776
2023-04-02T10:58:27.739Z,60.8540
2023-04-02T10:59:29.194Z,59.9498
2023-04-02T11:00:30.655Z,59.0160
2023-04-02T11:01:32.156Z,59.8434
2023-04-02T11:02:33.594Z,60.1445
2023-04-02T11:03:35.197Z,59.5858
2023-04-02T11:04:36.675Z,59.2927
2023-04-02T11:05:38.158Z,59.3917
2023-04-02T11:06:39.586Z,59.6794
2023-04-02T11:07:41.021Z,60.0483
2023-04-02T11:08:42.417Z,59.9785
2023-04-02T11:09:43.896Z,60.1153
2023-04-02T11:10:45.343Z,61.2027
2023-04-02T11:11:46.789Z,60.5549
2023-04-02T11:12:48.199Z,59.6830
2023-04-02T11:13:49.657Z,59.9784
2023-04-02T11:14:51.114Z,59.7834
2023-04-02T11:15:52.579Z,60.5974
2023-04-02T11:16:54.038Z,59.1863
2023-04-02T11:17:55.513Z,58.5451
2023-04-02T11:18:56.954Z,58.3937
2023-04-02T11:19:58.377Z,58.3136
2023-04-02T11:20:59.834Z,56.7604
2023-04-02T11:22:03.113Z,58.5534
2023-04-02T11:23:01.818Z,58.7527
2023-04-02T11:24:03.218Z,58.6119
2023-04-02T11:25:04.672Z,58.5912
2023-04-02T11:26:06.115Z,58.5550
2023-04-02T11:27:07.650Z,58.2266
2023-04-02T11:28:09.073Z,58.2807
2023-04-02T11:29:10.532Z,58.2726
2023-04-02T11:30:11.972Z,57.8738
2023-04-02T11:31:13.406Z,58.0207
2023-04-02T11:32:14.818Z,58.7397
2023-04-02T11:33:18.692Z,57.2314
2023-04-02T11:34:17.554Z,57.2288
2023-04-02T11:35:19.012Z,57.2326
2023-04-02T11:36:20.420Z,56.8537
2023-04-02T11:37:21.911Z,56.0912
2023-04-02T11:38:23.294Z,54.8907
2023-04-02T11:39:24.726Z,54.0537
2023-04-02T11:40:26.154Z,51.6077
2023-04-02T11:41:27.576Z,50.2347
2023-04-02T11:42:29.023Z,51.7312
2023-04-02T11:43:30.455Z,51.0969
2023-04-02T11:44:31.838Z,51.1553
2023-04-02T11:45:40.167Z,49.0600
2023-04-02T11:46:33.221Z,51.4169
2023-04-02T11:47:34.660Z,52.8691
2023-04-02T11:48:36.273Z,53.6074
2023-04-02T11:49:37.788Z,56.0112
2023-04-02T11:50:38.255Z,56.4382
2023-04-02T11:51:39.762Z,54.3819
2023-04-02T11:52:41.272Z,58.3508
2023-04-02T11:53:42.649Z,56.5529
2023-04-02T11:54:44.074Z,57.0279
2023-04-02T11:55:45.418Z,56.4124
2023-04-02T11:56:46.793Z,58.5793
2023-04-02T11:57:48.176Z,58.6860
2023-04-02T11:58:49.527Z,58.1933
2023-04-02T11:59:50.863Z,59.9555
2023-04-02T12:00:52.267Z,57.7663
2023-04-02T12:01:53.633Z,56.8337
2023-04-02T12:02:55.016Z,55.7254
2023-04-02T12:03:56.396Z,58.8078
2023-04-02T12:04:57.721Z,60.9126
2023-04-02T12:05:59.082Z,59.0335
2023-04-02T12:07:00.463Z,61.6280
2023-04-02T12:08:01.830Z,62.0836
2023-04-02T12:09:03.271Z,61.1934
2023-04-02T12:10:04.639Z,60.1154
2023-04-02T12:11:06.016Z,59.2669
2023-04-02T12:12:07.398Z,59.5397
2023-04-02T12:13:08.795Z,59.8640
2023-04-02T12:14:10.177Z,60.2900
2023-04-02T12:15:10.165Z,60.8854
2023-04-02T12:16:11.558Z,61.2423
2023-04-02T12:17:13.091Z,60.6953
2023-04-02T12:18:14.583Z,60.4679
2023-04-02T12:19:15.968Z,59.6381
2023-04-02T12:20:17.386Z,60.8085
2023-04-02T12:21:18.795Z,60.9294
2023-04-02T12:22:20.344Z,59.2497
2023-04-02T12:23:21.745Z,58.2566